Latest Coastal Weather Observations for Double Island Point

IDQ60701

Issued at 7:52 am EST Sunday 5 February 2023 (issued every 10 minutes, with the page automatically refreshed every 10 minutes)

About coastal observations | Map of coastal stations | Coastal observations for QLD | Marine services | Other Formats
Station Details ID: 040068 Name: DOUBLE ISLAND POINT LIGHTHOUSE Lat: -25.93 Lon: 153.19 Height: 95.64 m
Data from the previous 72 hours. | See also: Recent months at Double Island Point
Date/Time
EST
Wind Sea
Height
m
Swell Vis
km
Cloud Weather Temp
°C
Press
MSL
hPa
Rain since
9am
mm
Dir  Spd
kts
Gust
kts
Height
m
Period
s
Dir
05/07:30am SSE 26 30 - - - - - - - 26.4 1010.8 0.0
05/07:00am SSE 23 26 - - - - - - - 26.8 1010.5 0.0
05/06:30am SSE 21 25 - - - - - - - 26.4 1010.3 0.0
05/06:00am SSE 22 27 - - - - - - - 25.5 1009.9 0.0
05/05:30am SSE 22 25 - - - - - - - 25.7 1009.6 0.0
05/05:00am SSE 21 25 - - - - - - - 25.6 1009.1 0.0
05/04:30am SSE 19 23 - - - - - - - 25.7 1008.6 0.0
05/04:00am SSE 15 19 - - - - - - - 25.9 1008.4 0.0
05/03:30am SSE 16 19 - - - - - - - 25.8 1008.2 0.0
05/03:00am SSE 15 17 - - - - - - - 25.8 1008.2 0.0
05/02:30am S 15 17 - - - - - - - 25.8 1008.1 0.0
05/02:00am S 14 16 - - - - - - - 25.3 1008.0 0.0
05/01:30am S 13 15 - - - - - - - 25.3 1007.9 0.0
05/01:00am S 11 12 - - - - - - - 25.6 1008.2 0.0
05/12:30am SSE 9 11 - - - - - - - 25.8 1008.4 0.0
05/12:00am SE 9 10 - - - - - - - 25.8 1008.6 0.0
 
Date/Time
EST
Wind Sea
Height
m
Swell Vis
km
Cloud Weather Temp
°C
Press
MSL
hPa
Rain since
9am
mm
Dir  Spd
kts
Gust
kts
Height
m
Period
s
Dir
04/11:30pm ESE 8 9 - - - - - - - 26.0 1008.9 0.0
04/11:00pm E 10 12 - - - - - - - 26.1 1009.1 0.0
04/10:30pm E 11 13 - - - - - - - 26.1 1009.1 0.0
04/10:00pm ESE 11 13 - - - - - - - 26.0 1009.0 0.0
04/09:30pm ESE 13 14 - - - - - - - 26.1 1009.1 0.0
04/09:00pm SE 14 16 - - - - - - - 26.1 1008.7 0.0
04/08:30pm ESE 14 15 - - - - - - - 26.1 1008.6 0.0
04/08:00pm SE 15 17 - - - - - - - 26.1 1008.1 0.0
04/07:30pm ESE 15 17 - - - - - - - 26.1 1007.6 0.0
04/07:00pm SE 16 19 - - - - - - - 26.2 1006.9 0.0
04/06:30pm SE 17 19 - - - - - - - 26.3 1006.4 0.0
04/06:00pm SE 18 19 - - - - - - - 26.2 1005.4 0.0
04/05:30pm SSE 19 22 - - - - - - - 26.2 1005.3 0.0
04/05:00pm SSE 18 21 - - - - - - - 26.7 1004.9 0.0
04/04:30pm SSE 17 19 - - - - - - - 26.9 1004.8 0.0
04/04:00pm SSE 17 20 - - - - - - - 27.7 1004.7 0.0
04/03:30pm SSE 17 20 - - - - - - - 28.0 1004.5 0.0
04/03:00pm SE 11 12 - - - - - - - 27.8 1004.7 0.0
04/02:30pm SE 7 9 - - - - - - - 27.4 1004.7 0.0
04/02:00pm SE 7 7 - - - - - - - 28.3 1004.8 0.0
04/01:30pm SW 3 6 - - - - - - - 29.5 1004.8 0.0
04/01:00pm W 5 7 - - - - - - - 29.3 1004.9 0.0
04/12:30pm W 5 8 - - - - - - - 29.4 1004.9 0.0
04/12:00pm NW 8 11 - - - - - - - 30.0 1005.0 0.0
04/11:30am WNW 7 10 - - - - - - - 30.4 1004.9 0.0
04/11:00am WNW 7 11 - - - - - - - 30.0 1004.9 0.0
04/10:30am WNW 9 13 - - - - - - - 29.5 1004.8 0.0
04/10:00am NW 8 10 - - - - - - - 29.3 1004.8 0.0
04/09:30am NW 12 15 - - - - - - - 30.7 1004.5 0.0
04/09:00am NW 9 13 - - - - - - - 30.5 1004.3 0.0
04/08:30am NW 11 15 - - - - - - - 28.9 1004.2 0.0
04/08:00am NNW 16 20 - - - - - - - 28.8 1003.9 0.0
04/07:30am NNW 10 14 - - - - - - - 28.1 1003.8 0.0
04/07:00am N 4 8 - - - - - - - 27.2 1003.2 0.0
04/06:30am N 4 7 - - - - - - - 26.8 1002.6 0.0
04/06:00am NNE 1 4 - - - - - - - 27.0 1002.2 0.0
04/05:30am N 4 7 - - - - - - - 26.5 1001.6 0.0
04/05:00am N 3 8 - - - - - - - 26.4 1001.0 0.0
04/04:30am N 4 5 - - - - - - - 26.5 1000.6 0.0
04/04:00am N 5 6 - - - - - - - 26.5 1000.2 0.0
04/03:30am NNW 3 4 - - - - - - - 26.5 1000.1 0.0
04/03:00am NNW 8 11 - - - - - - - 26.6 1000.1 0.0
04/02:30am NNW 5 10 - - - - - - - 26.7 1000.1 0.0
04/02:00am CALM 0 0 - - - - - - - 26.8 1000.2 0.0
04/01:30am NNW 2 6 - - - - - - - 26.8 999.9 0.0
04/01:00am NNW 12 16 - - - - - - - 26.8 999.6 0.0
04/12:30am NNW 7 13 - - - - - - - 26.8 999.7 0.0
04/12:00am N 6 9 - - - - - - - 26.9 1000.0 0.0
 
Date/Time
EST
Wind Sea
Height
m
Swell Vis
km
Cloud Weather Temp
°C
Press
MSL
hPa
Rain since
9am
mm
Dir  Spd
kts
Gust
kts
Height
m
Period
s
Dir
03/11:30pm NNW 8 11 - - - - - - - 27.0 1000.1 0.0
03/11:00pm N 5 7 - - - - - - - 27.0 1000.3 0.0
03/10:30pm NNW 4 9 - - - - - - - 27.0 1000.7 0.0
03/10:00pm N 7 13 - - - - - - - 27.1 1000.7 0.0
03/09:30pm N 6 10 - - - - - - - 27.1 1000.8 0.0
03/09:00pm N 4 7 - - - - - - - 27.2 1000.6 0.0
03/08:30pm N 5 8 - - - - - - - 27.2 1000.2 0.0
03/08:00pm N 4 5 - - - - - - - 27.2 999.9 0.0
03/07:30pm N 5 6 - - - - - - - 27.3 999.7 0.0
03/07:00pm N 5 7 - - - - - - - 27.4 999.3 0.0
03/06:30pm NNW 4 5 - - - - - - - 27.6 998.8 0.0
03/06:00pm NNW 3 5 - - - - - - - 27.7 998.2 0.0
03/05:30pm NNW 4 5 - - - - - - - 28.3 998.0 0.0
03/05:00pm W 1 4 - - - - - - - 28.2 997.8 0.0
03/04:30pm W 1 4 - - - - - - - 28.4 997.6 0.0
03/04:00pm NW 3 4 - - - - - - - 28.8 997.4 0.0
03/03:30pm WNW 3 5 - - - - - - - 29.1 997.3 0.0
03/03:00pm NNW 4 8 - - - - - - - 29.2 997.3 0.0
03/02:30pm NNW 3 10 - - - - - - - 29.5 997.4 0.0
03/02:00pm NNW 2 5 - - - - - - - 29.5 997.7 0.0
03/01:30pm NNW 3 6 - - - - - - - 29.6 997.7 0.0
03/01:00pm N 4 7 - - - - - - - 30.5 997.9 0.0
03/12:30pm NNW 5 10 - - - - - - - 29.1 998.1 0.0
03/12:00pm N 3 6 - - - - - - - 29.7 998.2 0.0
03/11:30am NNW 3 6 - - - - - - - 29.5 998.3 0.0
03/11:00am NNW 4 5 - - - - - - - 29.5 998.4 0.0
03/10:30am NNW 4 7 - - - - - - - 29.9 998.5 0.0
03/10:00am N 5 8 - - - - - - - 29.3 998.5 0.0
03/09:30am NNW 7 11 - - - - - - - 27.8 998.7 0.0
03/09:00am NNW 9 11 - - - - - - - 26.7 998.5 -
03/08:30am NNW 9 11 - - - - - - - 25.8 998.4 -
03/08:00am NW 9 12 - - - - - - - 25.3 998.7 -
03/07:30am NW 11 14 - - - - - - - 24.9 998.6 -
03/07:00am NW 11 13 - - - - - - - 24.9 998.4 -
03/06:30am NW 10 13 - - - - - - - 25.0 998.3 -
03/06:00am NW 10 13 - - - - - - - 24.8 998.0 -
03/05:30am NW 12 15 - - - - - - - 24.6 997.5 -
03/05:00am WNW 13 17 - - - - - - - 24.4 997.1 -
03/04:30am NW 12 14 - - - - - - - 24.1 997.0 -
03/04:00am WNW 13 16 - - - - - - - 24.6 996.4 -
03/03:30am WNW 15 18 - - - - - - - 24.7 996.4 -
03/03:00am WNW 15 18 - - - - - - - 24.6 996.4 0.0
03/02:30am WNW 13 15 - - - - - - - 24.4 996.7 -
03/02:00am WNW 12 15 - - - - - - - 24.2 997.2 -
03/01:30am WNW 11 14 - - - - - - - 24.4 997.5 -
03/01:00am W 7 8 - - - - - - - 24.4 997.8 -
03/12:30am WSW 8 9 - - - - - - - 24.3 997.9 -
03/12:00am SSW 7 9 - - - - - - - 24.1 998.1 -
 
Date/Time
EST
Wind Sea
Height
m
Swell Vis
km
Cloud Weather Temp
°C
Press
MSL
hPa
Rain since
9am
mm
Dir  Spd
kts
Gust
kts
Height
m
Period
s
Dir
02/11:30pm SW 7 10 - - - - - - - 24.2 998.4 -
02/11:00pm WSW 8 10 - - - - - - - 24.7 998.7 -
02/10:30pm SE 4 4 - - - - - - - 24.7 998.8 -
02/10:00pm SE 4 6 - - - - - - - 24.8 998.8 -
02/09:30pm SE 7 8 - - - - - - - 24.7 998.8 -
02/09:00pm ENE 6 7 - - - - - - - 25.1 998.9 0.0
02/08:30pm E 7 8 - - - - - - - 25.0 998.9 -
02/08:00pm SE 8 10 - - - - - - - 25.1 999.0 -
02/07:30pm ESE 8 9 - - - - - - - 25.1 999.1 -
02/07:00pm ESE 10 12 - - - - - - - 25.2 999.0 -
02/06:30pm SE 15 17 - - - - - - - 25.2 998.6 -
02/06:00pm SE 17 19 - - - - - - - 25.2 998.0 -
02/05:30pm SE 18 21 - - - - - - - 25.4 997.4 -
02/05:00pm ESE 17 21 - - - - - - - 25.6 996.3 -
02/04:30pm SE 16 18 - - - - - - - 25.9 996.7 -
02/04:00pm SE 17 19 - - - - - - - 26.5 996.6 -
02/03:30pm SE 16 18 - - - - - - - 25.9 996.9 -
02/03:00pm SSE 16 18 - - - - - - - 25.7 997.1 -
02/02:30pm SSE 19 22 - - - - - - - 26.3 997.4 -
02/02:00pm SSE 17 21 - - - - - - - 25.7 997.8 -
02/01:30pm S 19 24 - - - - - - - 26.3 997.7 -
02/01:00pm S 19 22 - - - - - - - 26.0 998.5 -
02/12:00pm S 18 23 - - - - - - - 26.4 999.5 0.0
02/11:30am S 17 22 - - - - - - - 26.0 999.8 0.0
02/11:00am S 16 23 - - - - - - - 26.1 999.9 0.0
02/10:30am S 15 19 - - - - - - - 26.2 1000.4 0.0
02/10:00am S 16 19 - - - - - - - 25.9 1000.6 0.0
02/09:30am S 13 17 - - - - - - - 26.4 1000.6 0.0
02/09:00am SSE 12 15 - - - - - - - 26.7 1000.6 26.6
02/08:30am SSE 14 17 - - - - - - - 26.2 1000.3 26.6
02/08:00am SSE 15 18 - - - - - - - 26.0 1000.4 26.6

Other formats

Comma delimited format used in spreadsheet applications
http://www.bom.gov.au/fwo/IDQ60701/IDQ60701.94584.axf

JavaScript Object Notation format (JSON) in row-major order
http://www.bom.gov.au/fwo/IDQ60701/IDQ60701.94584.json

Data quality

Most of these data are generated automatically and are frequently updated. Quality checks on data are not normally performed. It is possible for incorrect values to appear. Refer to information at About Latest Weather Observations and please check the disclaimer before using these data.